sensor_id;sensor_type;location;lat;lon;timestamp;temperature;humidity
33023;DHT22;19390;51.460;5.710;2023-07-09T00:02:15;20.40;99.90
33023;DHT22;19390;51.460;5.710;2023-07-09T00:04:41;20.40;99.90
33023;DHT22;19390;51.460;5.710;2023-07-09T00:07:29;20.40;99.90
33023;DHT22;19390;51.460;5.710;2023-07-09T00:09:56;20.40;99.90
33023;DHT22;19390;51.460;5.710;2023-07-09T00:12:22;20.30;99.90
33023;DHT22;19390;51.460;5.710;2023-07-09T00:14:48;20.30;99.90
33023;DHT22;19390;51.460;5.710;2023-07-09T00:17:31;20.30;99.90
33023;DHT22;19390;51.460;5.710;2023-07-09T00:19:59;20.30;99.90
33023;DHT22;19390;51.460;5.710;2023-07-09T00:22:25;20.30;99.90
33023;DHT22;19390;51.460;5.710;2023-07-09T00:24:55;20.30;99.90
33023;DHT22;19390;51.460;5.710;2023-07-09T00:27:27;20.30;99.90
33023;DHT22;19390;51.460;5.710;2023-07-09T00:29:53;20.30;99.90
33023;DHT22;19390;51.460;5.710;2023-07-09T00:32:20;20.20;99.90
33023;DHT22;19390;51.460;5.710;2023-07-09T00:34:47;20.10;99.90
33023;DHT22;19390;51.460;5.710;2023-07-09T00:37:18;20.10;99.90
33023;DHT22;19390;51.460;5.710;2023-07-09T00:39:48;20.10;99.90
33023;DHT22;19390;51.460;5.710;2023-07-09T00:42:21;20.10;99.90
33023;DHT22;19390;51.460;5.710;2023-07-09T00:44:53;20.40;99.90
33023;DHT22;19390;51.460;5.710;2023-07-09T00:50:21;20.40;99.90
33023;DHT22;19390;51.460;5.710;2023-07-09T00:52:56;20.30;99.90
33023;DHT22;19390;51.460;5.710;2023-07-09T00:55:28;20.40;99.90
33023;DHT22;19390;51.460;5.710;2023-07-09T00:58:00;20.30;99.90
33023;DHT22;19390;51.460;5.710;2023-07-09T01:00:33;20.00;99.90
33023;DHT22;19390;51.460;5.710;2023-07-09T01:03:35;19.90;99.90
33023;DHT22;19390;51.460;5.710;2023-07-09T01:06:00;20.00;99.90
33023;DHT22;19390;51.460;5.710;2023-07-09T01:08:26;20.00;99.90
33023;DHT22;19390;51.460;5.710;2023-07-09T01:10:57;19.90;99.90
33023;DHT22;19390;51.460;5.710;2023-07-09T01:13:23;19.90;99.90
33023;DHT22;19390;51.460;5.710;2023-07-09T01:15:51;19.80;99.90
33023;DHT22;19390;51.460;5.710;2023-07-09T01:18:17;19.80;99.90
33023;DHT22;19390;51.460;5.710;2023-07-09T01:20:42;19.80;99.90
33023;DHT22;19390;51.460;5.710;2023-07-09T01:23:09;19.80;99.90
33023;DHT22;19390;51.460;5.710;2023-07-09T01:25:38;19.60;99.90
33023;DHT22;19390;51.460;5.710;2023-07-09T01:28:05;19.50;99.90
33023;DHT22;19390;51.460;5.710;2023-07-09T01:30:35;19.50;99.90
33023;DHT22;19390;51.460;5.710;2023-07-09T01:33:01;19.50;99.90
33023;DHT22;19390;51.460;5.710;2023-07-09T01:35:30;19.50;99.90
33023;DHT22;19390;51.460;5.710;2023-07-09T01:37:56;19.40;99.90
33023;DHT22;19390;51.460;5.710;2023-07-09T01:40:23;19.50;99.90
33023;DHT22;19390;51.460;5.710;2023-07-09T01:42:51;19.60;99.90
33023;DHT22;19390;51.460;5.710;2023-07-09T01:45:17;19.50;99.90
33023;DHT22;19390;51.460;5.710;2023-07-09T01:47:43;19.40;99.90
33023;DHT22;19390;51.460;5.710;2023-07-09T01:50:10;19.40;99.90
33023;DHT22;19390;51.460;5.710;2023-07-09T01:52:37;19.40;99.90
33023;DHT22;19390;51.460;5.710;2023-07-09T01:55:04;19.40;99.90
33023;DHT22;19390;51.460;5.710;2023-07-09T01:57:31;19.40;99.90
33023;DHT22;19390;51.460;5.710;2023-07-09T02:00:05;19.40;99.90
33023;DHT22;19390;51.460;5.710;2023-07-09T02:02:34;19.40;99.90
33023;DHT22;19390;51.460;5.710;2023-07-09T02:05:01;19.40;99.90
33023;DHT22;19390;51.460;5.710;2023-07-09T02:07:27;19.50;99.90
33023;DHT22;19390;51.460;5.710;2023-07-09T02:09:53;19.40;99.90
33023;DHT22;19390;51.460;5.710;2023-07-09T02:12:19;19.50;99.90
33023;DHT22;19390;51.460;5.710;2023-07-09T02:14:45;19.40;99.90
33023;DHT22;19390;51.460;5.710;2023-07-09T02:17:12;19.50;99.90
33023;DHT22;19390;51.460;5.710;2023-07-09T02:19:38;19.50;99.90
33023;DHT22;19390;51.460;5.710;2023-07-09T02:22:05;19.50;99.90
33023;DHT22;19390;51.460;5.710;2023-07-09T02:24:31;19.40;99.90
33023;DHT22;19390;51.460;5.710;2023-07-09T02:26:58;19.40;99.90
33023;DHT22;19390;51.460;5.710;2023-07-09T02:29:26;19.40;99.90
33023;DHT22;19390;51.460;5.710;2023-07-09T02:31:53;19.40;99.90
33023;DHT22;19390;51.460;5.710;2023-07-09T02:34:19;19.40;99.90
33023;DHT22;19390;51.460;5.710;2023-07-09T02:36:46;19.50;99.90
33023;DHT22;19390;51.460;5.710;2023-07-09T02:39:13;19.40;99.90
33023;DHT22;19390;51.460;5.710;2023-07-09T02:41:39;19.30;99.90
33023;DHT22;19390;51.460;5.710;2023-07-09T02:44:05;19.30;99.90
33023;DHT22;19390;51.460;5.710;2023-07-09T02:46:32;19.20;99.90
33023;DHT22;19390;51.460;5.710;2023-07-09T02:48:57;19.20;99.90
33023;DHT22;19390;51.460;5.710;2023-07-09T02:51:24;19.20;99.90
33023;DHT22;19390;51.460;5.710;2023-07-09T02:53:56;19.20;99.90
33023;DHT22;19390;51.460;5.710;2023-07-09T02:56:22;19.30;99.90
33023;DHT22;19390;51.460;5.710;2023-07-09T02:58:49;19.40;99.90
33023;DHT22;19390;51.460;5.710;2023-07-09T03:01:15;19.30;99.90
33023;DHT22;19390;51.460;5.710;2023-07-09T03:03:40;19.30;99.90
33023;DHT22;19390;51.460;5.710;2023-07-09T03:06:06;19.20;99.90
33023;DHT22;19390;51.460;5.710;2023-07-09T03:08:32;19.20;99.90
33023;DHT22;19390;51.460;5.710;2023-07-09T03:10:58;19.20;99.90
33023;DHT22;19390;51.460;5.710;2023-07-09T03:13:24;19.30;99.90
33023;DHT22;19390;51.460;5.710;2023-07-09T03:15:56;19.20;99.90
33023;DHT22;19390;51.460;5.710;2023-07-09T03:18:22;19.10;99.90
33023;DHT22;19390;51.460;5.710;2023-07-09T03:20:48;19.00;99.90
33023;DHT22;19390;51.460;5.710;2023-07-09T03:23:13;19.00;99.90
33023;DHT22;19390;51.460;5.710;2023-07-09T03:25:43;19.00;99.90
33023;DHT22;19390;51.460;5.710;2023-07-09T03:28:09;19.00;99.90
33023;DHT22;19390;51.460;5.710;2023-07-09T03:30:39;19.00;99.90
33023;DHT22;19390;51.460;5.710;2023-07-09T03:33:04;18.90;99.90
33023;DHT22;19390;51.460;5.710;2023-07-09T03:35:30;18.80;99.90
33023;DHT22;19390;51.460;5.710;2023-07-09T03:37:55;18.80;99.90
33023;DHT22;19390;51.460;5.710;2023-07-09T03:40:22;18.70;99.90
33023;DHT22;19390;51.460;5.710;2023-07-09T03:42:48;18.70;99.90
33023;DHT22;19390;51.460;5.710;2023-07-09T03:45:13;18.70;99.90
33023;DHT22;19390;51.460;5.710;2023-07-09T03:47:39;18.80;99.90
33023;DHT22;19390;51.460;5.710;2023-07-09T03:50:07;18.80;99.90
33023;DHT22;19390;51.460;5.710;2023-07-09T03:52:33;18.80;99.90
33023;DHT22;19390;51.460;5.710;2023-07-09T03:54:59;18.90;99.90
33023;DHT22;19390;51.460;5.710;2023-07-09T03:57:26;18.90;99.90
33023;DHT22;19390;51.460;5.710;2023-07-09T03:59:52;18.90;99.90
33023;DHT22;19390;51.460;5.710;2023-07-09T04:02:18;18.80;99.90
33023;DHT22;19390;51.460;5.710;2023-07-09T04:04:43;18.80;99.90
33023;DHT22;19390;51.460;5.710;2023-07-09T04:07:09;18.90;99.90
33023;DHT22;19390;51.460;5.710;2023-07-09T04:09:34;18.90;99.90
33023;DHT22;19390;51.460;5.710;2023-07-09T04:12:00;19.10;99.90
33023;DHT22;19390;51.460;5.710;2023-07-09T04:14:27;19.00;99.90
33023;DHT22;19390;51.460;5.710;2023-07-09T04:16:53;19.00;99.90
33023;DHT22;19390;51.460;5.710;2023-07-09T04:19:18;19.00;99.90
33023;DHT22;19390;51.460;5.710;2023-07-09T04:21:44;19.10;99.90
33023;DHT22;19390;51.460;5.710;2023-07-09T04:24:09;19.30;99.90
33023;DHT22;19390;51.460;5.710;2023-07-09T04:26:35;19.30;99.90
33023;DHT22;19390;51.460;5.710;2023-07-09T04:29:04;19.30;99.90
33023;DHT22;19390;51.460;5.710;2023-07-09T04:31:31;19.40;99.90
33023;DHT22;19390;51.460;5.710;2023-07-09T04:33:57;19.50;99.90
33023;DHT22;19390;51.460;5.710;2023-07-09T04:36:22;19.70;99.90
33023;DHT22;19390;51.460;5.710;2023-07-09T04:38:48;19.70;99.90
33023;DHT22;19390;51.460;5.710;2023-07-09T04:41:14;19.80;99.90
33023;DHT22;19390;51.460;5.710;2023-07-09T04:43:39;19.90;99.90
33023;DHT22;19390;51.460;5.710;2023-07-09T04:46:05;20.10;99.90
33023;DHT22;19390;51.460;5.710;2023-07-09T04:48:30;20.00;99.90
33023;DHT22;19390;51.460;5.710;2023-07-09T04:50:56;20.10;99.90
33023;DHT22;19390;51.460;5.710;2023-07-09T04:53:21;20.20;99.90
33023;DHT22;19390;51.460;5.710;2023-07-09T04:55:49;20.30;99.90
33023;DHT22;19390;51.460;5.710;2023-07-09T04:58:15;20.80;99.90
33023;DHT22;19390;51.460;5.710;2023-07-09T05:00:42;21.00;99.90
33023;DHT22;19390;51.460;5.710;2023-07-09T05:03:08;21.00;99.90
33023;DHT22;19390;51.460;5.710;2023-07-09T05:05:33;21.00;99.90
33023;DHT22;19390;51.460;5.710;2023-07-09T05:07:59;21.10;99.90
33023;DHT22;19390;51.460;5.710;2023-07-09T05:10:25;21.60;99.90
33023;DHT22;19390;51.460;5.710;2023-07-09T05:12:53;22.90;99.90
33023;DHT22;19390;51.460;5.710;2023-07-09T05:15:20;23.90;99.90
33023;DHT22;19390;51.460;5.710;2023-07-09T05:17:46;24.60;99.90
33023;DHT22;19390;51.460;5.710;2023-07-09T05:20:13;25.20;99.90
33023;DHT22;19390;51.460;5.710;2023-07-09T05:22:39;25.60;99.90
33023;DHT22;19390;51.460;5.710;2023-07-09T05:25:05;25.80;99.90
33023;DHT22;19390;51.460;5.710;2023-07-09T05:27:31;26.50;99.90
33023;DHT22;19390;51.460;5.710;2023-07-09T05:29:56;26.30;99.90
33023;DHT22;19390;51.460;5.710;2023-07-09T05:32:22;27.10;99.90
33023;DHT22;19390;51.460;5.710;2023-07-09T05:34:47;27.30;99.90
33023;DHT22;19390;51.460;5.710;2023-07-09T05:37:13;27.10;99.90
33023;DHT22;19390;51.460;5.710;2023-07-09T05:39:39;27.30;99.90
33023;DHT22;19390;51.460;5.710;2023-07-09T05:42:04;27.90;99.90
33023;DHT22;19390;51.460;5.710;2023-07-09T05:44:30;27.30;99.90
33023;DHT22;19390;51.460;5.710;2023-07-09T05:46:56;27.40;99.90
33023;DHT22;19390;51.460;5.710;2023-07-09T05:49:21;27.80;99.90
33023;DHT22;19390;51.460;5.710;2023-07-09T05:51:47;27.10;99.90
33023;DHT22;19390;51.460;5.710;2023-07-09T05:54:13;27.70;99.90
33023;DHT22;19390;51.460;5.710;2023-07-09T05:56:38;28.40;99.90
33023;DHT22;19390;51.460;5.710;2023-07-09T05:59:04;29.50;99.90
33023;DHT22;19390;51.460;5.710;2023-07-09T06:01:30;29.60;99.90
33023;DHT22;19390;51.460;5.710;2023-07-09T06:03:56;29.60;99.90
33023;DHT22;19390;51.460;5.710;2023-07-09T06:06:22;30.00;99.90
33023;DHT22;19390;51.460;5.710;2023-07-09T06:08:48;29.80;99.90
33023;DHT22;19390;51.460;5.710;2023-07-09T06:11:15;30.60;99.90
33023;DHT22;19390;51.460;5.710;2023-07-09T06:13:43;30.70;99.90
33023;DHT22;19390;51.460;5.710;2023-07-09T06:16:08;30.70;99.90
33023;DHT22;19390;51.460;5.710;2023-07-09T06:18:34;30.50;99.90
33023;DHT22;19390;51.460;5.710;2023-07-09T06:21:01;30.00;99.90
33023;DHT22;19390;51.460;5.710;2023-07-09T06:23:27;30.60;99.90
33023;DHT22;19390;51.460;5.710;2023-07-09T06:25:53;32.00;99.90
33023;DHT22;19390;51.460;5.710;2023-07-09T06:28:21;32.80;99.90
33023;DHT22;19390;51.460;5.710;2023-07-09T06:30:48;31.90;99.90
33023;DHT22;19390;51.460;5.710;2023-07-09T06:33:15;33.00;99.90
33023;DHT22;19390;51.460;5.710;2023-07-09T06:35:51;34.20;99.90
33023;DHT22;19390;51.460;5.710;2023-07-09T06:38:17;33.50;99.90
33023;DHT22;19390;51.460;5.710;2023-07-09T06:40:43;33.60;99.90
33023;DHT22;19390;51.460;5.710;2023-07-09T06:43:09;33.50;99.90
33023;DHT22;19390;51.460;5.710;2023-07-09T06:45:34;33.70;99.90
33023;DHT22;19390;51.460;5.710;2023-07-09T06:48:00;34.10;99.90
33023;DHT22;19390;51.460;5.710;2023-07-09T06:50:26;34.20;99.90
33023;DHT22;19390;51.460;5.710;2023-07-09T06:52:52;33.00;99.90
33023;DHT22;19390;51.460;5.710;2023-07-09T06:55:17;34.10;99.90
33023;DHT22;19390;51.460;5.710;2023-07-09T06:57:43;34.40;99.90
33023;DHT22;19390;51.460;5.710;2023-07-09T07:00:09;34.30;99.90
33023;DHT22;19390;51.460;5.710;2023-07-09T07:02:36;36.10;99.90
33023;DHT22;19390;51.460;5.710;2023-07-09T07:05:01;35.80;99.90
33023;DHT22;19390;51.460;5.710;2023-07-09T07:07:27;34.70;99.90
33023;DHT22;19390;51.460;5.710;2023-07-09T07:09:53;35.20;99.90
33023;DHT22;19390;51.460;5.710;2023-07-09T07:12:27;34.50;99.90
33023;DHT22;19390;51.460;5.710;2023-07-09T07:14:54;34.60;99.90
33023;DHT22;19390;51.460;5.710;2023-07-09T07:17:20;34.90;99.90
33023;DHT22;19390;51.460;5.710;2023-07-09T07:19:46;36.00;99.90
33023;DHT22;19390;51.460;5.710;2023-07-09T07:22:12;34.90;99.90
33023;DHT22;19390;51.460;5.710;2023-07-09T07:24:38;36.50;99.90
33023;DHT22;19390;51.460;5.710;2023-07-09T07:27:04;36.10;99.90
33023;DHT22;19390;51.460;5.710;2023-07-09T07:29:29;34.10;99.90
33023;DHT22;19390;51.460;5.710;2023-07-09T07:31:55;34.50;99.90
33023;DHT22;19390;51.460;5.710;2023-07-09T07:34:20;35.90;99.90
33023;DHT22;19390;51.460;5.710;2023-07-09T07:36:49;36.20;99.90
33023;DHT22;19390;51.460;5.710;2023-07-09T07:39:14;37.10;99.90
33023;DHT22;19390;51.460;5.710;2023-07-09T07:41:40;36.50;99.90
33023;DHT22;19390;51.460;5.710;2023-07-09T07:44:06;38.10;99.90
33023;DHT22;19390;51.460;5.710;2023-07-09T07:46:33;37.50;99.90
33023;DHT22;19390;51.460;5.710;2023-07-09T07:48:59;36.20;99.90
33023;DHT22;19390;51.460;5.710;2023-07-09T07:51:25;38.20;99.90
33023;DHT22;19390;51.460;5.710;2023-07-09T07:53:50;38.20;99.90
33023;DHT22;19390;51.460;5.710;2023-07-09T07:56:16;40.20;99.90
33023;DHT22;19390;51.460;5.710;2023-07-09T07:58:42;37.60;99.90
33023;DHT22;19390;51.460;5.710;2023-07-09T08:01:07;37.20;99.90
33023;DHT22;19390;51.460;5.710;2023-07-09T08:03:33;38.90;99.90
33023;DHT22;19390;51.460;5.710;2023-07-09T08:05:58;37.20;99.90
33023;DHT22;19390;51.460;5.710;2023-07-09T08:08:24;37.40;99.90
33023;DHT22;19390;51.460;5.710;2023-07-09T08:10:50;38.90;99.90
33023;DHT22;19390;51.460;5.710;2023-07-09T08:13:16;37.30;99.90
33023;DHT22;19390;51.460;5.710;2023-07-09T08:15:42;36.00;99.90
33023;DHT22;19390;51.460;5.710;2023-07-09T08:18:07;37.50;99.90
33023;DHT22;19390;51.460;5.710;2023-07-09T08:20:33;38.00;99.90
33023;DHT22;19390;51.460;5.710;2023-07-09T08:22:59;37.00;99.90
33023;DHT22;19390;51.460;5.710;2023-07-09T08:25:24;37.20;99.90
33023;DHT22;19390;51.460;5.710;2023-07-09T08:27:50;37.30;99.90
33023;DHT22;19390;51.460;5.710;2023-07-09T08:30:16;37.50;99.90
33023;DHT22;19390;51.460;5.710;2023-07-09T08:32:41;39.70;99.90
33023;DHT22;19390;51.460;5.710;2023-07-09T08:35:07;40.30;99.90
33023;DHT22;19390;51.460;5.710;2023-07-09T08:37:35;40.50;99.90
33023;DHT22;19390;51.460;5.710;2023-07-09T08:40:01;40.40;99.90
33023;DHT22;19390;51.460;5.710;2023-07-09T08:42:35;39.80;99.90
33023;DHT22;19390;51.460;5.710;2023-07-09T08:48:31;40.40;99.90
33023;DHT22;19390;51.460;5.710;2023-07-09T08:51:02;37.40;99.90
33023;DHT22;19390;51.460;5.710;2023-07-09T08:53:38;37.20;99.90
33023;DHT22;19390;51.460;5.710;2023-07-09T08:56:09;39.10;99.90
33023;DHT22;19390;51.460;5.710;2023-07-09T08:58:36;38.40;99.90
33023;DHT22;19390;51.460;5.710;2023-07-09T09:01:05;39.00;99.90
33023;DHT22;19390;51.460;5.710;2023-07-09T09:03:39;41.30;99.90
33023;DHT22;19390;51.460;5.710;2023-07-09T09:06:14;43.10;99.90
33023;DHT22;19390;51.460;5.710;2023-07-09T09:08:47;42.20;99.90
33023;DHT22;19390;51.460;5.710;2023-07-09T09:14:03;42.80;99.90
33023;DHT22;19390;51.460;5.710;2023-07-09T09:16:34;40.10;99.90
33023;DHT22;19390;51.460;5.710;2023-07-09T09:19:01;40.80;99.90
33023;DHT22;19390;51.460;5.710;2023-07-09T09:21:33;38.00;99.90
33023;DHT22;19390;51.460;5.710;2023-07-09T09:24:14;40.00;99.90
33023;DHT22;19390;51.460;5.710;2023-07-09T09:26:42;40.80;99.90
33023;DHT22;19390;51.460;5.710;2023-07-09T09:29:15;43.50;99.90
33023;DHT22;19390;51.460;5.710;2023-07-09T09:31:49;43.00;99.90
33023;DHT22;19390;51.460;5.710;2023-07-09T09:34:26;44.70;99.90
33023;DHT22;19390;51.460;5.710;2023-07-09T09:36:53;45.20;99.90
33023;DHT22;19390;51.460;5.710;2023-07-09T09:39:20;44.00;99.90
33023;DHT22;19390;51.460;5.710;2023-07-09T09:41:46;44.70;99.90
33023;DHT22;19390;51.460;5.710;2023-07-09T09:44:28;43.10;99.90
33023;DHT22;19390;51.460;5.710;2023-07-09T09:46:56;42.90;99.90
33023;DHT22;19390;51.460;5.710;2023-07-09T09:49:23;42.30;99.90
33023;DHT22;19390;51.460;5.710;2023-07-09T09:51:48;39.80;99.90
33023;DHT22;19390;51.460;5.710;2023-07-09T09:54:20;41.60;99.90
33023;DHT22;19390;51.460;5.710;2023-07-09T09:56:48;40.80;99.90
33023;DHT22;19390;51.460;5.710;2023-07-09T09:59:29;39.80;99.90
33023;DHT22;19390;51.460;5.710;2023-07-09T10:02:05;39.70;99.90
33023;DHT22;19390;51.460;5.710;2023-07-09T10:04:37;44.10;99.90
33023;DHT22;19390;51.460;5.710;2023-07-09T10:07:07;43.30;99.90
33023;DHT22;19390;51.460;5.710;2023-07-09T10:09:50;42.20;99.90
33023;DHT22;19390;51.460;5.710;2023-07-09T10:26:09;43.50;99.90
33023;DHT22;19390;51.460;5.710;2023-07-09T10:32:01;41.90;99.90
33023;DHT22;19390;51.460;5.710;2023-07-09T10:34:55;42.40;99.90
33023;DHT22;19390;51.460;5.710;2023-07-09T10:40:02;42.50;99.90
33023;DHT22;19390;51.460;5.710;2023-07-09T10:45:21;44.30;99.90
33023;DHT22;19390;51.460;5.710;2023-07-09T10:47:51;46.10;99.90
33023;DHT22;19390;51.460;5.710;2023-07-09T10:53:37;45.40;99.90
33023;DHT22;19390;51.460;5.710;2023-07-09T10:56:22;46.10;99.90
33023;DHT22;19390;51.460;5.710;2023-07-09T10:59:03;45.30;99.90
33023;DHT22;19390;51.460;5.710;2023-07-09T11:01:42;43.20;99.90
33023;DHT22;19390;51.460;5.710;2023-07-09T11:04:35;42.10;99.90
33023;DHT22;19390;51.460;5.710;2023-07-09T11:07:06;42.80;99.90
33023;DHT22;19390;51.460;5.710;2023-07-09T11:09:38;44.40;99.90
33023;DHT22;19390;51.460;5.710;2023-07-09T11:12:10;43.40;99.90
33023;DHT22;19390;51.460;5.710;2023-07-09T11:14:45;41.30;99.90
33023;DHT22;19390;51.460;5.710;2023-07-09T11:17:14;41.10;99.90
33023;DHT22;19390;51.460;5.710;2023-07-09T11:19:53;39.40;99.90
33023;DHT22;19390;51.460;5.710;2023-07-09T11:22:36;39.30;99.90
33023;DHT22;19390;51.460;5.710;2023-07-09T11:25:12;40.30;99.90
33023;DHT22;19390;51.460;5.710;2023-07-09T11:27:49;40.70;99.90
33023;DHT22;19390;51.460;5.710;2023-07-09T11:30:23;40.20;99.90
33023;DHT22;19390;51.460;5.710;2023-07-09T11:32:56;40.20;99.90
33023;DHT22;19390;51.460;5.710;2023-07-09T11:35:25;38.70;99.90
33023;DHT22;19390;51.460;5.710;2023-07-09T11:37:51;38.90;99.90
33023;DHT22;19390;51.460;5.710;2023-07-09T11:40:19;39.20;99.90
33023;DHT22;19390;51.460;5.710;2023-07-09T11:42:59;39.70;99.90
33023;DHT22;19390;51.460;5.710;2023-07-09T11:45:29;40.10;99.90
33023;DHT22;19390;51.460;5.710;2023-07-09T11:50:39;39.40;99.90
33023;DHT22;19390;51.460;5.710;2023-07-09T11:55:46;37.50;99.90
33023;DHT22;19390;51.460;5.710;2023-07-09T11:58:17;38.50;99.90
33023;DHT22;19390;51.460;5.710;2023-07-09T12:03:23;37.70;99.90
33023;DHT22;19390;51.460;5.710;2023-07-09T12:05:52;37.30;99.90
33023;DHT22;19390;51.460;5.710;2023-07-09T12:08:28;38.10;99.90
33023;DHT22;19390;51.460;5.710;2023-07-09T12:10:56;36.70;99.90
33023;DHT22;19390;51.460;5.710;2023-07-09T12:13:21;37.50;99.90
33023;DHT22;19390;51.460;5.710;2023-07-09T12:15:47;37.40;99.90
33023;DHT22;19390;51.460;5.710;2023-07-09T12:18:14;37.40;99.90
33023;DHT22;19390;51.460;5.710;2023-07-09T12:20:41;37.60;99.90
33023;DHT22;19390;51.460;5.710;2023-07-09T12:23:28;37.70;99.90
33023;DHT22;19390;51.460;5.710;2023-07-09T12:25:55;38.10;99.90
33023;DHT22;19390;51.460;5.710;2023-07-09T12:28:22;37.20;99.90
33023;DHT22;19390;51.460;5.710;2023-07-09T12:30:49;36.50;99.90
33023;DHT22;19390;51.460;5.710;2023-07-09T12:33:17;35.60;99.90
33023;DHT22;19390;51.460;5.710;2023-07-09T12:35:43;35.60;99.90
33023;DHT22;19390;51.460;5.710;2023-07-09T12:38:17;36.00;99.90
33023;DHT22;19390;51.460;5.710;2023-07-09T12:40:44;36.30;99.90
33023;DHT22;19390;51.460;5.710;2023-07-09T12:43:11;35.90;99.90
33023;DHT22;19390;51.460;5.710;2023-07-09T12:45:36;36.10;99.90
33023;DHT22;19390;51.460;5.710;2023-07-09T12:48:02;36.80;99.90
33023;DHT22;19390;51.460;5.710;2023-07-09T12:50:31;36.20;99.90
33023;DHT22;19390;51.460;5.710;2023-07-09T12:53:02;35.90;99.90
33023;DHT22;19390;51.460;5.710;2023-07-09T12:55:29;35.50;99.90
33023;DHT22;19390;51.460;5.710;2023-07-09T12:57:59;35.60;99.90
33023;DHT22;19390;51.460;5.710;2023-07-09T13:00:31;34.70;99.90
33023;DHT22;19390;51.460;5.710;2023-07-09T13:02:58;34.30;99.90
33023;DHT22;19390;51.460;5.710;2023-07-09T13:05:25;34.20;99.90
33023;DHT22;19390;51.460;5.710;2023-07-09T13:07:53;33.90;99.90
33023;DHT22;19390;51.460;5.710;2023-07-09T13:10:30;33.80;99.90
33023;DHT22;19390;51.460;5.710;2023-07-09T13:13:03;33.80;99.90
33023;DHT22;19390;51.460;5.710;2023-07-09T13:15:38;33.60;99.90
33023;DHT22;19390;51.460;5.710;2023-07-09T13:18:05;33.30;99.90
33023;DHT22;19390;51.460;5.710;2023-07-09T13:20:32;32.90;99.90
33023;DHT22;19390;51.460;5.710;2023-07-09T13:22:59;32.80;99.90
33023;DHT22;19390;51.460;5.710;2023-07-09T13:25:25;33.30;99.90
33023;DHT22;19390;51.460;5.710;2023-07-09T13:27:51;32.50;99.90
33023;DHT22;19390;51.460;5.710;2023-07-09T13:30:17;32.30;99.90
33023;DHT22;19390;51.460;5.710;2023-07-09T13:32:44;31.90;99.90
33023;DHT22;19390;51.460;5.710;2023-07-09T13:35:18;32.30;99.90
33023;DHT22;19390;51.460;5.710;2023-07-09T13:37:45;31.90;99.90
33023;DHT22;19390;51.460;5.710;2023-07-09T13:40:13;31.40;99.90
33023;DHT22;19390;51.460;5.710;2023-07-09T13:42:40;31.30;99.90
33023;DHT22;19390;51.460;5.710;2023-07-09T13:45:15;30.90;99.90
33023;DHT22;19390;51.460;5.710;2023-07-09T13:47:41;30.80;99.90
33023;DHT22;19390;51.460;5.710;2023-07-09T13:50:07;30.30;99.90
33023;DHT22;19390;51.460;5.710;2023-07-09T13:52:34;29.90;99.90
33023;DHT22;19390;51.460;5.710;2023-07-09T13:55:00;29.30;99.90
33023;DHT22;19390;51.460;5.710;2023-07-09T13:57:25;28.90;99.90
33023;DHT22;19390;51.460;5.710;2023-07-09T13:59:51;27.50;99.90
33023;DHT22;19390;51.460;5.710;2023-07-09T14:02:44;27.40;99.90
33023;DHT22;19390;51.460;5.710;2023-07-09T14:05:12;27.50;99.90
33023;DHT22;19390;51.460;5.710;2023-07-09T14:07:39;27.30;99.90
33023;DHT22;19390;51.460;5.710;2023-07-09T14:10:11;25.20;99.90
33023;DHT22;19390;51.460;5.710;2023-07-09T14:12:40;25.00;99.90
33023;DHT22;19390;51.460;5.710;2023-07-09T14:15:13;25.60;99.90
33023;DHT22;19390;51.460;5.710;2023-07-09T14:17:39;25.60;99.90
33023;DHT22;19390;51.460;5.710;2023-07-09T14:20:05;26.30;99.90
33023;DHT22;19390;51.460;5.710;2023-07-09T14:22:34;26.70;99.90
33023;DHT22;19390;51.460;5.710;2023-07-09T14:25:01;26.20;99.90
33023;DHT22;19390;51.460;5.710;2023-07-09T14:27:27;26.10;99.90
33023;DHT22;19390;51.460;5.710;2023-07-09T14:29:53;25.40;99.90
33023;DHT22;19390;51.460;5.710;2023-07-09T14:32:32;25.60;99.90
33023;DHT22;19390;51.460;5.710;2023-07-09T14:34:59;25.20;99.90
33023;DHT22;19390;51.460;5.710;2023-07-09T14:37:24;25.40;99.90
33023;DHT22;19390;51.460;5.710;2023-07-09T14:39:51;25.60;99.90
33023;DHT22;19390;51.460;5.710;2023-07-09T14:42:17;25.50;99.90
33023;DHT22;19390;51.460;5.710;2023-07-09T14:44:43;25.60;99.90
33023;DHT22;19390;51.460;5.710;2023-07-09T14:47:18;25.60;99.90
33023;DHT22;19390;51.460;5.710;2023-07-09T14:49:44;25.50;99.90
33023;DHT22;19390;51.460;5.710;2023-07-09T14:52:14;25.50;99.90
33023;DHT22;19390;51.460;5.710;2023-07-09T14:54:43;25.30;99.90
33023;DHT22;19390;51.460;5.710;2023-07-09T14:57:18;25.10;99.90
33023;DHT22;19390;51.460;5.710;2023-07-09T14:59:45;25.50;99.90
33023;DHT22;19390;51.460;5.710;2023-07-09T15:04:54;25.50;99.90
33023;DHT22;19390;51.460;5.710;2023-07-09T15:07:20;25.70;99.90
33023;DHT22;19390;51.460;5.710;2023-07-09T15:09:45;26.10;99.90
33023;DHT22;19390;51.460;5.710;2023-07-09T15:12:20;26.00;99.90
33023;DHT22;19390;51.460;5.710;2023-07-09T15:14:47;26.10;99.90
33023;DHT22;19390;51.460;5.710;2023-07-09T15:17:13;26.10;99.90
33023;DHT22;19390;51.460;5.710;2023-07-09T15:19:39;26.50;99.90
33023;DHT22;19390;51.460;5.710;2023-07-09T15:22:05;26.70;99.90
33023;DHT22;19390;51.460;5.710;2023-07-09T15:24:33;26.40;99.90
33023;DHT22;19390;51.460;5.710;2023-07-09T15:26:59;26.10;99.90
33023;DHT22;19390;51.460;5.710;2023-07-09T15:29:27;26.00;99.90
33023;DHT22;19390;51.460;5.710;2023-07-09T15:31:53;25.90;99.90
33023;DHT22;19390;51.460;5.710;2023-07-09T15:34:18;25.60;99.90
33023;DHT22;19390;51.460;5.710;2023-07-09T15:36:50;25.60;99.90
33023;DHT22;19390;51.460;5.710;2023-07-09T15:39:16;25.70;99.90
33023;DHT22;19390;51.460;5.710;2023-07-09T15:41:42;26.00;99.90
33023;DHT22;19390;51.460;5.710;2023-07-09T15:44:10;26.00;99.90
33023;DHT22;19390;51.460;5.710;2023-07-09T15:46:38;26.00;99.90
33023;DHT22;19390;51.460;5.710;2023-07-09T15:49:04;26.20;99.90
33023;DHT22;19390;51.460;5.710;2023-07-09T15:51:30;26.50;99.90
33023;DHT22;19390;51.460;5.710;2023-07-09T15:53:56;26.50;99.90
33023;DHT22;19390;51.460;5.710;2023-07-09T15:56:27;26.40;99.90
33023;DHT22;19390;51.460;5.710;2023-07-09T15:58:55;25.90;99.90
33023;DHT22;19390;51.460;5.710;2023-07-09T16:01:22;26.10;99.90
33023;DHT22;19390;51.460;5.710;2023-07-09T16:03:54;26.10;99.90
33023;DHT22;19390;51.460;5.710;2023-07-09T16:06:23;25.80;99.90
33023;DHT22;19390;51.460;5.710;2023-07-09T16:08:48;26.40;99.90
33023;DHT22;19390;51.460;5.710;2023-07-09T16:11:17;26.20;99.90
33023;DHT22;19390;51.460;5.710;2023-07-09T16:13:43;26.20;99.90
33023;DHT22;19390;51.460;5.710;2023-07-09T16:16:19;26.00;99.90
33023;DHT22;19390;51.460;5.710;2023-07-09T16:18:45;26.20;99.90
33023;DHT22;19390;51.460;5.710;2023-07-09T16:21:34;26.40;99.90
33023;DHT22;19390;51.460;5.710;2023-07-09T16:24:02;25.70;99.90